Portada
METAR-TAF:

METAR-TAF

Aeroports :

Txungking, Xina

latitud: 29-31N, longitud: 106-29E, altitud: 351 m

Observació

L'informe es va fer fa 26 minuts, a les 11:00 UTC
Vent 4 kt del Nord/Nord-Est
Temperatura 11°C
Humitat 62%
Pressió 1027 hPa
Visibilitat 10 km o més
sense núvols per sota de 1500 mi sense presència de cumulonimbus.

METAR: ZUCK 071100Z 03002MPS CAVOK 11/04 Q1027 NOSIG

Hora: 19:26 (11:26 UTC)

Pronòstic

L'informe es va fer fa 8 hores i 22 minuts, a les 03:04 UTC
Pronòstic vàlid del 07 a les 06 UTC al 08 a les 06 UTC
Vent 6 kt del Nord/Nord-Est
Visibilitat: 6000 m
Núvols disperses a una alçada de 5000 ft

TAF: ZUCK 070304Z 0706/0806 03003MPS 6000 SCT050 TX15/0708Z TN05/0722Z

Observacions i pronòstics meteorològics de més de 4000 aeroports (METAR i TAF).

Les estacions disponibles són els punts grocs i vermells al mapa.

Posi el ratolí al punt desitjat per veure el nom de l'estació.

Feu clic per veure les observacions i els pronòstics meteorològics.

Per canviar el mapa: feu clic els botons verds amb una creu de color negre per apropar; al botó verd amb un guió per allunyar la imatge; o en les fletxes verdes per a mapes adjacents.


METAR-TAF: